sensor_id;sensor_type;location;lat;lon;timestamp;P1;durP1;ratioP1;P2;durP2;ratioP2
24153;SDS011;12312;53.362;-1.518;2023-05-16T00:03:30;13.50;;;2.28;;
24153;SDS011;12312;53.362;-1.518;2023-05-16T00:07:12;14.68;;;2.67;;
24153;SDS011;12312;53.362;-1.518;2023-05-16T00:10:55;12.52;;;2.80;;
24153;SDS011;12312;53.362;-1.518;2023-05-16T00:14:39;12.52;;;2.75;;
24153;SDS011;12312;53.362;-1.518;2023-05-16T00:18:22;14.43;;;3.00;;
24153;SDS011;12312;53.362;-1.518;2023-05-16T00:22:06;9.18;;;1.80;;
24153;SDS011;12312;53.362;-1.518;2023-05-16T00:25:48;10.57;;;1.98;;
24153;SDS011;12312;53.362;-1.518;2023-05-16T00:29:30;14.45;;;2.75;;
24153;SDS011;12312;53.362;-1.518;2023-05-16T00:33:13;18.60;;;2.83;;
24153;SDS011;12312;53.362;-1.518;2023-05-16T00:36:55;10.18;;;2.90;;
24153;SDS011;12312;53.362;-1.518;2023-05-16T00:40:38;17.75;;;2.63;;
24153;SDS011;12312;53.362;-1.518;2023-05-16T00:44:21;14.55;;;3.08;;
24153;SDS011;12312;53.362;-1.518;2023-05-16T00:48:05;12.45;;;3.25;;
24153;SDS011;12312;53.362;-1.518;2023-05-16T00:51:48;12.52;;;3.65;;
24153;SDS011;12312;53.362;-1.518;2023-05-16T00:55:30;10.65;;;2.85;;
24153;SDS011;12312;53.362;-1.518;2023-05-16T00:59:13;14.07;;;2.03;;
24153;SDS011;12312;53.362;-1.518;2023-05-16T01:02:58;11.57;;;2.63;;
24153;SDS011;12312;53.362;-1.518;2023-05-16T01:06:44;14.52;;;3.03;;
24153;SDS011;12312;53.362;-1.518;2023-05-16T01:10:27;10.98;;;3.10;;
24153;SDS011;12312;53.362;-1.518;2023-05-16T01:18:29;11.23;;;2.83;;
24153;SDS011;12312;53.362;-1.518;2023-05-16T01:30:18;12.73;;;2.38;;
24153;SDS011;12312;53.362;-1.518;2023-05-16T01:34:01;16.42;;;2.97;;
24153;SDS011;12312;53.362;-1.518;2023-05-16T01:37:47;16.83;;;2.53;;
24153;SDS011;12312;53.362;-1.518;2023-05-16T01:45:33;11.50;;;2.42;;
24153;SDS011;12312;53.362;-1.518;2023-05-16T01:49:24;13.80;;;2.40;;
24153;SDS011;12312;53.362;-1.518;2023-05-16T01:53:11;8.88;;;2.58;;
24153;SDS011;12312;53.362;-1.518;2023-05-16T01:56:58;13.55;;;2.63;;
24153;SDS011;12312;53.362;-1.518;2023-05-16T02:00:42;10.77;;;2.95;;
24153;SDS011;12312;53.362;-1.518;2023-05-16T02:04:40;15.20;;;3.03;;
24153;SDS011;12312;53.362;-1.518;2023-05-16T02:08:23;12.57;;;2.35;;
24153;SDS011;12312;53.362;-1.518;2023-05-16T02:12:08;14.05;;;2.65;;
24153;SDS011;12312;53.362;-1.518;2023-05-16T02:15:52;11.60;;;3.40;;
24153;SDS011;12312;53.362;-1.518;2023-05-16T02:19:35;16.70;;;2.75;;
24153;SDS011;12312;53.362;-1.518;2023-05-16T02:23:20;12.75;;;2.60;;
24153;SDS011;12312;53.362;-1.518;2023-05-16T02:27:04;12.02;;;2.47;;
24153;SDS011;12312;53.362;-1.518;2023-05-16T02:30:54;11.27;;;2.28;;
24153;SDS011;12312;53.362;-1.518;2023-05-16T02:34:37;13.65;;;2.80;;
24153;SDS011;12312;53.362;-1.518;2023-05-16T02:38:21;10.27;;;2.80;;
24153;SDS011;12312;53.362;-1.518;2023-05-16T02:42:05;13.20;;;2.90;;
24153;SDS011;12312;53.362;-1.518;2023-05-16T02:45:48;15.73;;;2.95;;
24153;SDS011;12312;53.362;-1.518;2023-05-16T02:49:31;9.63;;;2.83;;
24153;SDS011;12312;53.362;-1.518;2023-05-16T02:53:14;13.73;;;3.42;;
24153;SDS011;12312;53.362;-1.518;2023-05-16T02:56:56;12.48;;;2.88;;
24153;SDS011;12312;53.362;-1.518;2023-05-16T03:00:39;16.45;;;4.28;;
24153;SDS011;12312;53.362;-1.518;2023-05-16T03:04:22;14.35;;;3.40;;
24153;SDS011;12312;53.362;-1.518;2023-05-16T03:08:05;16.50;;;3.65;;
24153;SDS011;12312;53.362;-1.518;2023-05-16T03:11:48;16.73;;;3.65;;
24153;SDS011;12312;53.362;-1.518;2023-05-16T03:15:31;19.73;;;4.38;;
24153;SDS011;12312;53.362;-1.518;2023-05-16T03:19:14;13.38;;;4.18;;
24153;SDS011;12312;53.362;-1.518;2023-05-16T03:22:56;16.30;;;3.97;;
24153;SDS011;12312;53.362;-1.518;2023-05-16T03:26:40;16.00;;;4.40;;
24153;SDS011;12312;53.362;-1.518;2023-05-16T03:30:23;10.93;;;3.88;;
24153;SDS011;12312;53.362;-1.518;2023-05-16T03:34:06;10.77;;;4.10;;
24153;SDS011;12312;53.362;-1.518;2023-05-16T03:37:49;12.50;;;3.75;;
24153;SDS011;12312;53.362;-1.518;2023-05-16T03:41:32;14.93;;;3.40;;
24153;SDS011;12312;53.362;-1.518;2023-05-16T03:45:15;13.65;;;4.63;;
24153;SDS011;12312;53.362;-1.518;2023-05-16T03:48:57;15.00;;;3.78;;
24153;SDS011;12312;53.362;-1.518;2023-05-16T03:52:40;11.95;;;3.67;;
24153;SDS011;12312;53.362;-1.518;2023-05-16T03:56:24;12.93;;;3.90;;
24153;SDS011;12312;53.362;-1.518;2023-05-16T04:00:07;14.40;;;4.22;;
24153;SDS011;12312;53.362;-1.518;2023-05-16T04:03:50;15.07;;;4.10;;
24153;SDS011;12312;53.362;-1.518;2023-05-16T04:07:33;8.25;;;3.60;;
24153;SDS011;12312;53.362;-1.518;2023-05-16T04:11:16;11.73;;;3.20;;
24153;SDS011;12312;53.362;-1.518;2023-05-16T04:14:59;15.75;;;3.40;;
24153;SDS011;12312;53.362;-1.518;2023-05-16T04:18:43;14.48;;;3.20;;
24153;SDS011;12312;53.362;-1.518;2023-05-16T04:22:26;9.05;;;3.03;;
24153;SDS011;12312;53.362;-1.518;2023-05-16T04:26:09;12.93;;;3.10;;
24153;SDS011;12312;53.362;-1.518;2023-05-16T04:29:51;7.80;;;2.47;;
24153;SDS011;12312;53.362;-1.518;2023-05-16T04:33:34;8.07;;;2.60;;
24153;SDS011;12312;53.362;-1.518;2023-05-16T04:37:20;13.00;;;2.95;;
24153;SDS011;12312;53.362;-1.518;2023-05-16T04:41:02;12.80;;;3.05;;
24153;SDS011;12312;53.362;-1.518;2023-05-16T04:44:47;11.00;;;3.00;;
24153;SDS011;12312;53.362;-1.518;2023-05-16T04:48:30;8.88;;;2.80;;
24153;SDS011;12312;53.362;-1.518;2023-05-16T04:52:13;10.48;;;3.10;;
24153;SDS011;12312;53.362;-1.518;2023-05-16T04:55:58;10.85;;;2.88;;
24153;SDS011;12312;53.362;-1.518;2023-05-16T04:59:41;11.07;;;2.80;;
24153;SDS011;12312;53.362;-1.518;2023-05-16T05:03:24;9.13;;;2.60;;
24153;SDS011;12312;53.362;-1.518;2023-05-16T05:07:07;11.45;;;2.92;;
24153;SDS011;12312;53.362;-1.518;2023-05-16T05:10:50;12.75;;;3.05;;
24153;SDS011;12312;53.362;-1.518;2023-05-16T05:14:33;9.50;;;2.60;;
24153;SDS011;12312;53.362;-1.518;2023-05-16T05:18:16;10.88;;;2.63;;
24153;SDS011;12312;53.362;-1.518;2023-05-16T05:22:00;12.50;;;2.88;;
24153;SDS011;12312;53.362;-1.518;2023-05-16T05:25:43;12.68;;;2.85;;
24153;SDS011;12312;53.362;-1.518;2023-05-16T05:29:25;9.85;;;2.90;;
24153;SDS011;12312;53.362;-1.518;2023-05-16T05:33:09;13.50;;;3.03;;
24153;SDS011;12312;53.362;-1.518;2023-05-16T05:36:52;10.73;;;2.60;;
24153;SDS011;12312;53.362;-1.518;2023-05-16T05:40:34;11.85;;;2.63;;
24153;SDS011;12312;53.362;-1.518;2023-05-16T05:44:17;8.20;;;2.33;;
24153;SDS011;12312;53.362;-1.518;2023-05-16T05:48:00;6.68;;;1.70;;
24153;SDS011;12312;53.362;-1.518;2023-05-16T05:51:43;9.93;;;2.20;;
24153;SDS011;12312;53.362;-1.518;2023-05-16T05:55:26;5.40;;;1.73;;
24153;SDS011;12312;53.362;-1.518;2023-05-16T05:59:09;9.57;;;2.20;;
24153;SDS011;12312;53.362;-1.518;2023-05-16T06:02:53;9.43;;;2.60;;
24153;SDS011;12312;53.362;-1.518;2023-05-16T06:06:36;9.90;;;2.05;;
24153;SDS011;12312;53.362;-1.518;2023-05-16T06:10:19;9.23;;;1.70;;
24153;SDS011;12312;53.362;-1.518;2023-05-16T06:14:02;8.45;;;1.60;;
24153;SDS011;12312;53.362;-1.518;2023-05-16T06:17:45;9.05;;;2.03;;
24153;SDS011;12312;53.362;-1.518;2023-05-16T06:21:28;14.00;;;2.10;;
24153;SDS011;12312;53.362;-1.518;2023-05-16T06:25:11;7.38;;;1.55;;
24153;SDS011;12312;53.362;-1.518;2023-05-16T06:28:54;3.95;;;1.40;;
24153;SDS011;12312;53.362;-1.518;2023-05-16T06:32:36;7.38;;;1.55;;
24153;SDS011;12312;53.362;-1.518;2023-05-16T06:36:19;7.82;;;1.30;;
24153;SDS011;12312;53.362;-1.518;2023-05-16T06:40:02;10.75;;;1.65;;
24153;SDS011;12312;53.362;-1.518;2023-05-16T06:43:45;8.98;;;1.63;;
24153;SDS011;12312;53.362;-1.518;2023-05-16T06:47:28;7.55;;;1.80;;
24153;SDS011;12312;53.362;-1.518;2023-05-16T06:51:11;9.68;;;1.77;;
24153;SDS011;12312;53.362;-1.518;2023-05-16T06:54:54;6.10;;;1.60;;
24153;SDS011;12312;53.362;-1.518;2023-05-16T06:58:39;10.60;;;1.90;;
24153;SDS011;12312;53.362;-1.518;2023-05-16T07:02:21;10.73;;;1.98;;
24153;SDS011;12312;53.362;-1.518;2023-05-16T07:06:07;6.43;;;1.70;;
24153;SDS011;12312;53.362;-1.518;2023-05-16T07:09:51;9.68;;;2.05;;
24153;SDS011;12312;53.362;-1.518;2023-05-16T07:13:34;9.73;;;1.77;;
24153;SDS011;12312;53.362;-1.518;2023-05-16T07:17:17;10.93;;;2.10;;
24153;SDS011;12312;53.362;-1.518;2023-05-16T07:20:59;10.93;;;1.85;;
24153;SDS011;12312;53.362;-1.518;2023-05-16T07:24:42;6.75;;;1.77;;
24153;SDS011;12312;53.362;-1.518;2023-05-16T07:28:26;6.47;;;1.73;;
24153;SDS011;12312;53.362;-1.518;2023-05-16T07:32:09;5.50;;;1.73;;
24153;SDS011;12312;53.362;-1.518;2023-05-16T07:35:52;5.97;;;1.40;;
24153;SDS011;12312;53.362;-1.518;2023-05-16T07:39:35;6.88;;;1.90;;
24153;SDS011;12312;53.362;-1.518;2023-05-16T07:43:18;9.30;;;2.03;;
24153;SDS011;12312;53.362;-1.518;2023-05-16T07:47:01;7.47;;;2.17;;
24153;SDS011;12312;53.362;-1.518;2023-05-16T07:50:44;10.25;;;2.80;;
24153;SDS011;12312;53.362;-1.518;2023-05-16T07:54:27;8.85;;;2.67;;
24153;SDS011;12312;53.362;-1.518;2023-05-16T07:58:09;11.63;;;3.17;;
24153;SDS011;12312;53.362;-1.518;2023-05-16T08:01:52;14.90;;;3.70;;
24153;SDS011;12312;53.362;-1.518;2023-05-16T08:05:35;12.30;;;3.30;;
24153;SDS011;12312;53.362;-1.518;2023-05-16T08:09:18;11.15;;;3.30;;
24153;SDS011;12312;53.362;-1.518;2023-05-16T08:13:01;10.23;;;3.17;;
24153;SDS011;12312;53.362;-1.518;2023-05-16T08:16:44;12.48;;;3.40;;
24153;SDS011;12312;53.362;-1.518;2023-05-16T08:20:26;13.57;;;3.88;;
24153;SDS011;12312;53.362;-1.518;2023-05-16T08:24:09;15.77;;;4.20;;
24153;SDS011;12312;53.362;-1.518;2023-05-16T08:27:52;16.13;;;3.72;;
24153;SDS011;12312;53.362;-1.518;2023-05-16T08:31:35;9.48;;;4.03;;
24153;SDS011;12312;53.362;-1.518;2023-05-16T08:35:18;10.68;;;3.72;;
24153;SDS011;12312;53.362;-1.518;2023-05-16T08:39:02;14.18;;;4.00;;
24153;SDS011;12312;53.362;-1.518;2023-05-16T08:42:45;10.40;;;3.55;;
24153;SDS011;12312;53.362;-1.518;2023-05-16T08:46:33;9.45;;;3.15;;
24153;SDS011;12312;53.362;-1.518;2023-05-16T08:50:19;12.10;;;4.10;;
24153;SDS011;12312;53.362;-1.518;2023-05-16T08:54:05;10.50;;;3.70;;
24153;SDS011;12312;53.362;-1.518;2023-05-16T08:57:52;10.15;;;3.33;;
24153;SDS011;12312;53.362;-1.518;2023-05-16T09:01:37;11.93;;;4.13;;
24153;SDS011;12312;53.362;-1.518;2023-05-16T09:05:24;9.68;;;4.45;;
24153;SDS011;12312;53.362;-1.518;2023-05-16T09:09:09;13.75;;;4.97;;
24153;SDS011;12312;53.362;-1.518;2023-05-16T09:12:51;13.35;;;4.63;;
24153;SDS011;12312;53.362;-1.518;2023-05-16T09:16:34;11.57;;;4.80;;
24153;SDS011;12312;53.362;-1.518;2023-05-16T09:20:19;12.85;;;4.88;;
24153;SDS011;12312;53.362;-1.518;2023-05-16T09:24:06;15.93;;;5.00;;
24153;SDS011;12312;53.362;-1.518;2023-05-16T09:27:53;13.20;;;4.53;;
24153;SDS011;12312;53.362;-1.518;2023-05-16T09:31:38;7.80;;;3.83;;
24153;SDS011;12312;53.362;-1.518;2023-05-16T09:35:25;11.85;;;5.32;;
24153;SDS011;12312;53.362;-1.518;2023-05-16T09:39:08;11.40;;;4.00;;
24153;SDS011;12312;53.362;-1.518;2023-05-16T09:43:00;11.10;;;4.57;;
24153;SDS011;12312;53.362;-1.518;2023-05-16T09:46:46;9.65;;;4.57;;
24153;SDS011;12312;53.362;-1.518;2023-05-16T09:50:30;15.85;;;4.50;;
24153;SDS011;12312;53.362;-1.518;2023-05-16T09:54:14;12.30;;;4.50;;
24153;SDS011;12312;53.362;-1.518;2023-05-16T09:57:57;13.55;;;4.60;;
24153;SDS011;12312;53.362;-1.518;2023-05-16T10:01:40;12.68;;;4.80;;
24153;SDS011;12312;53.362;-1.518;2023-05-16T10:05:25;12.32;;;4.18;;
24153;SDS011;12312;53.362;-1.518;2023-05-16T10:09:10;17.02;;;5.07;;
24153;SDS011;12312;53.362;-1.518;2023-05-16T10:12:53;17.52;;;5.20;;
24153;SDS011;12312;53.362;-1.518;2023-05-16T10:16:40;17.75;;;5.25;;
24153;SDS011;12312;53.362;-1.518;2023-05-16T10:20:26;14.68;;;5.15;;
24153;SDS011;12312;53.362;-1.518;2023-05-16T10:24:11;16.85;;;4.50;;
24153;SDS011;12312;53.362;-1.518;2023-05-16T10:28:14;11.85;;;4.40;;
24153;SDS011;12312;53.362;-1.518;2023-05-16T10:31:57;11.55;;;4.68;;
24153;SDS011;12312;53.362;-1.518;2023-05-16T10:35:42;18.27;;;5.70;;
24153;SDS011;12312;53.362;-1.518;2023-05-16T10:39:26;14.95;;;5.53;;
24153;SDS011;12312;53.362;-1.518;2023-05-16T10:43:09;17.08;;;5.25;;
24153;SDS011;12312;53.362;-1.518;2023-05-16T10:47:00;19.83;;;7.20;;
24153;SDS011;12312;53.362;-1.518;2023-05-16T10:50:44;13.50;;;5.20;;
24153;SDS011;12312;53.362;-1.518;2023-05-16T10:54:34;16.33;;;5.28;;
24153;SDS011;12312;53.362;-1.518;2023-05-16T10:58:38;17.55;;;5.18;;
24153;SDS011;12312;53.362;-1.518;2023-05-16T11:02:32;14.30;;;5.35;;
24153;SDS011;12312;53.362;-1.518;2023-05-16T11:06:21;16.67;;;5.38;;
24153;SDS011;12312;53.362;-1.518;2023-05-16T11:14:07;19.75;;;6.30;;
24153;SDS011;12312;53.362;-1.518;2023-05-16T11:18:04;17.70;;;5.22;;
24153;SDS011;12312;53.362;-1.518;2023-05-16T11:26:00;21.33;;;5.80;;
24153;SDS011;12312;53.362;-1.518;2023-05-16T11:29:44;17.08;;;4.97;;
24153;SDS011;12312;53.362;-1.518;2023-05-16T11:33:32;12.90;;;4.90;;
24153;SDS011;12312;53.362;-1.518;2023-05-16T11:37:18;15.68;;;4.60;;
24153;SDS011;12312;53.362;-1.518;2023-05-16T11:41:02;20.35;;;4.80;;
24153;SDS011;12312;53.362;-1.518;2023-05-16T11:44:45;18.27;;;4.57;;
24153;SDS011;12312;53.362;-1.518;2023-05-16T11:48:30;16.80;;;4.93;;
24153;SDS011;12312;53.362;-1.518;2023-05-16T11:52:12;14.30;;;4.30;;
24153;SDS011;12312;53.362;-1.518;2023-05-16T11:55:56;16.50;;;4.13;;
24153;SDS011;12312;53.362;-1.518;2023-05-16T11:59:39;15.57;;;4.05;;
24153;SDS011;12312;53.362;-1.518;2023-05-16T12:03:30;14.50;;;3.30;;
24153;SDS011;12312;53.362;-1.518;2023-05-16T12:07:13;15.40;;;3.88;;
24153;SDS011;12312;53.362;-1.518;2023-05-16T12:10:59;13.50;;;3.97;;
24153;SDS011;12312;53.362;-1.518;2023-05-16T12:14:42;14.73;;;4.07;;
24153;SDS011;12312;53.362;-1.518;2023-05-16T12:18:28;11.93;;;3.67;;
24153;SDS011;12312;53.362;-1.518;2023-05-16T12:22:17;16.13;;;4.13;;
24153;SDS011;12312;53.362;-1.518;2023-05-16T12:26:01;15.07;;;4.43;;
24153;SDS011;12312;53.362;-1.518;2023-05-16T12:29:47;14.85;;;4.35;;
24153;SDS011;12312;53.362;-1.518;2023-05-16T12:33:31;14.63;;;4.20;;
24153;SDS011;12312;53.362;-1.518;2023-05-16T12:37:19;15.55;;;3.67;;
24153;SDS011;12312;53.362;-1.518;2023-05-16T12:41:02;11.50;;;3.65;;
24153;SDS011;12312;53.362;-1.518;2023-05-16T12:44:47;15.02;;;4.32;;
24153;SDS011;12312;53.362;-1.518;2023-05-16T12:48:34;14.07;;;4.20;;
24153;SDS011;12312;53.362;-1.518;2023-05-16T12:52:17;13.73;;;4.10;;
24153;SDS011;12312;53.362;-1.518;2023-05-16T12:56:01;20.00;;;4.55;;
24153;SDS011;12312;53.362;-1.518;2023-05-16T12:59:43;17.38;;;4.25;;
24153;SDS011;12312;53.362;-1.518;2023-05-16T13:03:26;19.83;;;4.55;;
24153;SDS011;12312;53.362;-1.518;2023-05-16T13:07:09;17.65;;;3.97;;
24153;SDS011;12312;53.362;-1.518;2023-05-16T13:10:51;12.93;;;3.92;;
24153;SDS011;12312;53.362;-1.518;2023-05-16T13:14:34;13.90;;;4.90;;
24153;SDS011;12312;53.362;-1.518;2023-05-16T13:18:18;12.32;;;4.25;;
24153;SDS011;12312;53.362;-1.518;2023-05-16T13:22:02;13.98;;;4.63;;
24153;SDS011;12312;53.362;-1.518;2023-05-16T13:25:45;14.20;;;4.43;;
24153;SDS011;12312;53.362;-1.518;2023-05-16T13:29:29;20.25;;;4.13;;
24153;SDS011;12312;53.362;-1.518;2023-05-16T13:33:12;11.30;;;3.80;;
24153;SDS011;12312;53.362;-1.518;2023-05-16T13:36:55;12.40;;;4.13;;
24153;SDS011;12312;53.362;-1.518;2023-05-16T13:40:38;12.75;;;4.07;;
24153;SDS011;12312;53.362;-1.518;2023-05-16T13:44:22;14.68;;;3.50;;
24153;SDS011;12312;53.362;-1.518;2023-05-16T13:48:05;15.18;;;4.03;;
24153;SDS011;12312;53.362;-1.518;2023-05-16T13:51:49;11.57;;;3.45;;
24153;SDS011;12312;53.362;-1.518;2023-05-16T13:55:32;12.05;;;3.70;;
24153;SDS011;12312;53.362;-1.518;2023-05-16T13:59:15;17.02;;;3.90;;
24153;SDS011;12312;53.362;-1.518;2023-05-16T14:02:57;16.20;;;4.38;;
24153;SDS011;12312;53.362;-1.518;2023-05-16T14:06:40;20.45;;;4.05;;
24153;SDS011;12312;53.362;-1.518;2023-05-16T14:10:23;14.63;;;3.67;;
24153;SDS011;12312;53.362;-1.518;2023-05-16T14:14:11;11.95;;;4.07;;
24153;SDS011;12312;53.362;-1.518;2023-05-16T14:17:54;14.63;;;4.10;;
24153;SDS011;12312;53.362;-1.518;2023-05-16T14:21:36;12.18;;;3.72;;
24153;SDS011;12312;53.362;-1.518;2023-05-16T14:25:20;9.45;;;3.83;;
24153;SDS011;12312;53.362;-1.518;2023-05-16T14:29:07;12.98;;;3.90;;
24153;SDS011;12312;53.362;-1.518;2023-05-16T14:32:50;10.88;;;3.33;;
24153;SDS011;12312;53.362;-1.518;2023-05-16T14:36:33;11.80;;;3.85;;
24153;SDS011;12312;53.362;-1.518;2023-05-16T14:40:16;15.45;;;3.75;;
24153;SDS011;12312;53.362;-1.518;2023-05-16T14:43:58;9.30;;;3.28;;
24153;SDS011;12312;53.362;-1.518;2023-05-16T14:47:40;10.13;;;3.97;;
24153;SDS011;12312;53.362;-1.518;2023-05-16T14:51:23;10.52;;;3.97;;
24153;SDS011;12312;53.362;-1.518;2023-05-16T14:55:06;13.90;;;4.10;;
24153;SDS011;12312;53.362;-1.518;2023-05-16T14:58:49;12.88;;;4.47;;
24153;SDS011;12312;53.362;-1.518;2023-05-16T15:02:32;12.10;;;4.15;;
24153;SDS011;12312;53.362;-1.518;2023-05-16T15:06:15;15.27;;;4.88;;
24153;SDS011;12312;53.362;-1.518;2023-05-16T15:10:01;13.93;;;4.50;;
24153;SDS011;12312;53.362;-1.518;2023-05-16T15:13:44;12.90;;;4.30;;
24153;SDS011;12312;53.362;-1.518;2023-05-16T15:17:26;10.90;;;4.38;;
24153;SDS011;12312;53.362;-1.518;2023-05-16T15:21:09;15.10;;;5.13;;
24153;SDS011;12312;53.362;-1.518;2023-05-16T15:24:53;15.98;;;4.70;;
24153;SDS011;12312;53.362;-1.518;2023-05-16T15:28:36;14.85;;;4.75;;
24153;SDS011;12312;53.362;-1.518;2023-05-16T15:32:18;15.25;;;4.75;;
24153;SDS011;12312;53.362;-1.518;2023-05-16T15:36:01;12.82;;;4.95;;
24153;SDS011;12312;53.362;-1.518;2023-05-16T15:39:44;17.15;;;4.53;;
24153;SDS011;12312;53.362;-1.518;2023-05-16T15:43:26;16.60;;;4.90;;
24153;SDS011;12312;53.362;-1.518;2023-05-16T15:47:10;14.48;;;4.55;;
24153;SDS011;12312;53.362;-1.518;2023-05-16T15:50:53;15.95;;;4.68;;
24153;SDS011;12312;53.362;-1.518;2023-05-16T15:54:35;14.48;;;4.70;;
24153;SDS011;12312;53.362;-1.518;2023-05-16T15:58:18;13.45;;;4.60;;
24153;SDS011;12312;53.362;-1.518;2023-05-16T16:02:00;16.55;;;4.97;;
24153;SDS011;12312;53.362;-1.518;2023-05-16T16:05:43;14.40;;;4.22;;
24153;SDS011;12312;53.362;-1.518;2023-05-16T16:09:26;11.32;;;4.40;;
24153;SDS011;12312;53.362;-1.518;2023-05-16T16:13:09;11.40;;;3.97;;
24153;SDS011;12312;53.362;-1.518;2023-05-16T16:16:53;13.02;;;4.38;;
24153;SDS011;12312;53.362;-1.518;2023-05-16T16:20:36;18.05;;;3.88;;
24153;SDS011;12312;53.362;-1.518;2023-05-16T16:24:19;18.35;;;4.75;;
24153;SDS011;12312;53.362;-1.518;2023-05-16T16:28:02;12.00;;;5.00;;
24153;SDS011;12312;53.362;-1.518;2023-05-16T16:31:45;14.40;;;4.38;;
24153;SDS011;12312;53.362;-1.518;2023-05-16T16:35:27;12.65;;;4.25;;
24153;SDS011;12312;53.362;-1.518;2023-05-16T16:39:10;15.60;;;4.70;;
24153;SDS011;12312;53.362;-1.518;2023-05-16T16:42:53;14.77;;;4.05;;
24153;SDS011;12312;53.362;-1.518;2023-05-16T16:46:36;14.95;;;4.30;;
24153;SDS011;12312;53.362;-1.518;2023-05-16T16:50:18;17.95;;;4.18;;
24153;SDS011;12312;53.362;-1.518;2023-05-16T16:54:01;16.40;;;3.88;;
24153;SDS011;12312;53.362;-1.518;2023-05-16T16:57:44;15.07;;;4.40;;
24153;SDS011;12312;53.362;-1.518;2023-05-16T17:01:27;10.63;;;4.07;;
24153;SDS011;12312;53.362;-1.518;2023-05-16T17:05:11;12.25;;;4.78;;
24153;SDS011;12312;53.362;-1.518;2023-05-16T17:08:54;14.98;;;3.40;;
24153;SDS011;12312;53.362;-1.518;2023-05-16T17:12:37;13.40;;;4.35;;
24153;SDS011;12312;53.362;-1.518;2023-05-16T17:16:20;14.57;;;3.55;;
24153;SDS011;12312;53.362;-1.518;2023-05-16T17:20:02;10.95;;;4.00;;
24153;SDS011;12312;53.362;-1.518;2023-05-16T17:23:45;9.77;;;3.33;;
24153;SDS011;12312;53.362;-1.518;2023-05-16T17:27:28;10.40;;;3.10;;
24153;SDS011;12312;53.362;-1.518;2023-05-16T17:31:13;10.85;;;3.00;;
24153;SDS011;12312;53.362;-1.518;2023-05-16T17:34:55;8.27;;;2.47;;
24153;SDS011;12312;53.362;-1.518;2023-05-16T17:38:38;6.43;;;2.28;;
24153;SDS011;12312;53.362;-1.518;2023-05-16T17:42:22;4.82;;;2.47;;
24153;SDS011;12312;53.362;-1.518;2023-05-16T17:46:06;10.20;;;2.92;;
24153;SDS011;12312;53.362;-1.518;2023-05-16T17:49:49;8.20;;;2.60;;
24153;SDS011;12312;53.362;-1.518;2023-05-16T17:53:33;9.13;;;2.95;;
24153;SDS011;12312;53.362;-1.518;2023-05-16T17:57:15;7.68;;;3.08;;
24153;SDS011;12312;53.362;-1.518;2023-05-16T18:00:57;6.20;;;2.60;;
24153;SDS011;12312;53.362;-1.518;2023-05-16T18:04:40;11.25;;;2.85;;
24153;SDS011;12312;53.362;-1.518;2023-05-16T18:08:23;6.75;;;2.80;;
24153;SDS011;12312;53.362;-1.518;2023-05-16T18:12:06;7.07;;;2.92;;
24153;SDS011;12312;53.362;-1.518;2023-05-16T18:15:49;9.85;;;3.05;;
24153;SDS011;12312;53.362;-1.518;2023-05-16T18:19:31;7.82;;;2.60;;
24153;SDS011;12312;53.362;-1.518;2023-05-16T18:23:14;6.13;;;2.78;;
24153;SDS011;12312;53.362;-1.518;2023-05-16T18:26:58;11.45;;;2.45;;
24153;SDS011;12312;53.362;-1.518;2023-05-16T18:30:41;6.35;;;2.97;;
24153;SDS011;12312;53.362;-1.518;2023-05-16T18:34:25;9.30;;;3.17;;
24153;SDS011;12312;53.362;-1.518;2023-05-16T18:38:09;7.20;;;2.72;;
24153;SDS011;12312;53.362;-1.518;2023-05-16T18:41:53;6.75;;;2.58;;
24153;SDS011;12312;53.362;-1.518;2023-05-16T18:45:36;9.55;;;3.35;;
24153;SDS011;12312;53.362;-1.518;2023-05-16T18:49:19;9.55;;;3.00;;
24153;SDS011;12312;53.362;-1.518;2023-05-16T18:53:01;9.02;;;3.60;;
24153;SDS011;12312;53.362;-1.518;2023-05-16T18:56:44;8.52;;;3.25;;
24153;SDS011;12312;53.362;-1.518;2023-05-16T19:00:27;9.30;;;3.38;;
24153;SDS011;12312;53.362;-1.518;2023-05-16T19:04:11;11.35;;;3.50;;
24153;SDS011;12312;53.362;-1.518;2023-05-16T19:07:54;5.72;;;3.05;;
24153;SDS011;12312;53.362;-1.518;2023-05-16T19:11:37;9.55;;;3.55;;
24153;SDS011;12312;53.362;-1.518;2023-05-16T19:15:19;7.53;;;3.50;;
24153;SDS011;12312;53.362;-1.518;2023-05-16T19:19:02;10.23;;;3.22;;
24153;SDS011;12312;53.362;-1.518;2023-05-16T19:22:45;12.55;;;3.47;;
24153;SDS011;12312;53.362;-1.518;2023-05-16T19:26:28;11.90;;;3.47;;
24153;SDS011;12312;53.362;-1.518;2023-05-16T19:30:14;8.55;;;3.25;;
24153;SDS011;12312;53.362;-1.518;2023-05-16T19:33:57;9.15;;;3.90;;
24153;SDS011;12312;53.362;-1.518;2023-05-16T19:37:39;9.48;;;3.97;;
24153;SDS011;12312;53.362;-1.518;2023-05-16T19:41:22;9.95;;;4.00;;
24153;SDS011;12312;53.362;-1.518;2023-05-16T19:45:05;17.67;;;3.95;;
24153;SDS011;12312;53.362;-1.518;2023-05-16T19:48:48;9.40;;;3.80;;
24153;SDS011;12312;53.362;-1.518;2023-05-16T19:52:30;12.98;;;4.40;;
24153;SDS011;12312;53.362;-1.518;2023-05-16T19:56:13;10.18;;;3.85;;
24153;SDS011;12312;53.362;-1.518;2023-05-16T19:59:55;11.77;;;4.00;;
24153;SDS011;12312;53.362;-1.518;2023-05-16T20:03:38;10.43;;;4.22;;
24153;SDS011;12312;53.362;-1.518;2023-05-16T20:07:21;11.45;;;4.40;;
24153;SDS011;12312;53.362;-1.518;2023-05-16T20:11:04;8.63;;;3.60;;
24153;SDS011;12312;53.362;-1.518;2023-05-16T20:14:47;10.15;;;4.18;;
24153;SDS011;12312;53.362;-1.518;2023-05-16T20:18:30;7.63;;;3.75;;
24153;SDS011;12312;53.362;-1.518;2023-05-16T20:22:12;8.40;;;3.85;;
24153;SDS011;12312;53.362;-1.518;2023-05-16T20:25:55;12.25;;;4.00;;
24153;SDS011;12312;53.362;-1.518;2023-05-16T20:29:37;17.42;;;4.85;;
24153;SDS011;12312;53.362;-1.518;2023-05-16T20:33:20;10.85;;;3.53;;
24153;SDS011;12312;53.362;-1.518;2023-05-16T20:37:02;18.17;;;6.68;;
24153;SDS011;12312;53.362;-1.518;2023-05-16T20:40:45;10.38;;;4.13;;
24153;SDS011;12312;53.362;-1.518;2023-05-16T20:44:27;16.15;;;4.20;;
24153;SDS011;12312;53.362;-1.518;2023-05-16T20:48:12;10.13;;;3.67;;
24153;SDS011;12312;53.362;-1.518;2023-05-16T20:51:55;15.00;;;5.43;;
24153;SDS011;12312;53.362;-1.518;2023-05-16T20:55:37;12.55;;;4.38;;
24153;SDS011;12312;53.362;-1.518;2023-05-16T20:59:20;15.75;;;5.00;;
24153;SDS011;12312;53.362;-1.518;2023-05-16T21:03:03;11.82;;;5.13;;
24153;SDS011;12312;53.362;-1.518;2023-05-16T21:06:46;13.43;;;4.35;;
24153;SDS011;12312;53.362;-1.518;2023-05-16T21:10:28;11.95;;;4.47;;
24153;SDS011;12312;53.362;-1.518;2023-05-16T21:14:10;16.42;;;5.10;;
24153;SDS011;12312;53.362;-1.518;2023-05-16T21:17:53;11.15;;;4.22;;
24153;SDS011;12312;53.362;-1.518;2023-05-16T21:21:36;10.13;;;4.63;;
24153;SDS011;12312;53.362;-1.518;2023-05-16T21:25:18;11.32;;;4.78;;
24153;SDS011;12312;53.362;-1.518;2023-05-16T21:29:01;14.30;;;4.70;;
24153;SDS011;12312;53.362;-1.518;2023-05-16T21:32:45;10.82;;;5.15;;
24153;SDS011;12312;53.362;-1.518;2023-05-16T21:36:27;12.65;;;5.20;;
24153;SDS011;12312;53.362;-1.518;2023-05-16T21:40:10;13.52;;;4.82;;
24153;SDS011;12312;53.362;-1.518;2023-05-16T21:43:53;15.95;;;4.90;;
24153;SDS011;12312;53.362;-1.518;2023-05-16T21:47:39;12.40;;;4.53;;
24153;SDS011;12312;53.362;-1.518;2023-05-16T21:51:22;12.43;;;4.80;;
24153;SDS011;12312;53.362;-1.518;2023-05-16T21:55:05;12.55;;;4.60;;
24153;SDS011;12312;53.362;-1.518;2023-05-16T21:58:48;16.35;;;6.00;;
24153;SDS011;12312;53.362;-1.518;2023-05-16T22:02:33;14.27;;;4.80;;
24153;SDS011;12312;53.362;-1.518;2023-05-16T22:06:16;18.15;;;5.82;;
24153;SDS011;12312;53.362;-1.518;2023-05-16T22:09:59;14.68;;;5.18;;
24153;SDS011;12312;53.362;-1.518;2023-05-16T22:13:42;12.65;;;5.22;;
24153;SDS011;12312;53.362;-1.518;2023-05-16T22:17:24;14.02;;;5.07;;